createdAt,value
2017-06-02T00:02:04.340Z,3.02
2017-06-02T00:04:33.268Z,2.76
2017-06-02T00:07:02.236Z,3.62
2017-06-02T00:09:31.169Z,2.40
2017-06-02T00:12:00.149Z,2.38
2017-06-02T00:14:29.077Z,2.60
2017-06-02T00:16:58.012Z,3.26
2017-06-02T00:19:26.994Z,2.80
2017-06-02T00:21:55.925Z,4.16
2017-06-02T00:24:24.853Z,2.74
2017-06-02T00:26:53.901Z,2.68
2017-06-02T00:29:22.831Z,3.00
2017-06-02T00:31:51.824Z,3.38
2017-06-02T00:34:20.761Z,3.38
2017-06-02T00:36:49.689Z,2.30
2017-06-02T00:39:18.675Z,3.10
2017-06-02T00:41:47.604Z,2.60
2017-06-02T00:44:16.532Z,2.98
2017-06-02T00:46:45.559Z,3.00
2017-06-02T00:49:14.493Z,2.92
2017-06-02T00:51:43.432Z,3.28
2017-06-02T00:54:12.419Z,2.16
2017-06-02T00:56:41.548Z,2.94
2017-06-02T00:59:10.470Z,2.80
2017-06-02T01:01:39.440Z,3.14
2017-06-02T01:04:08.377Z,3.10
2017-06-02T01:06:37.350Z,2.68
2017-06-02T01:09:06.272Z,2.64
2017-06-02T01:11:35.249Z,3.28
2017-06-02T01:14:04.188Z,3.40
2017-06-02T01:16:33.253Z,3.34
2017-06-02T01:19:02.219Z,4.06
2017-06-02T01:21:31.184Z,3.34
2017-06-02T01:24:00.197Z,3.06
2017-06-02T01:26:29.120Z,3.34
2017-06-02T01:28:58.040Z,3.30
2017-06-02T01:31:27.010Z,3.36
2017-06-02T01:33:55.925Z,2.74
2017-06-02T01:36:24.905Z,3.54
2017-06-02T01:38:53.828Z,3.42
2017-06-02T01:41:22.792Z,3.18
2017-06-02T01:43:51.708Z,3.10
2017-06-02T01:46:20.685Z,3.12
2017-06-02T01:48:49.652Z,3.12
2017-06-02T01:51:18.575Z,4.06
2017-06-02T01:53:47.528Z,3.20
2017-06-02T01:56:16.527Z,3.28
2017-06-02T01:58:45.493Z,4.64
2017-06-02T02:01:14.416Z,3.92
2017-06-02T02:03:43.385Z,3.06
2017-06-02T02:06:12.376Z,3.26
2017-06-02T02:08:41.297Z,2.76
2017-06-02T02:11:10.269Z,3.12
2017-06-02T02:13:39.248Z,3.06
2017-06-02T02:16:08.213Z,3.50
2017-06-02T02:18:37.140Z,4.14
2017-06-02T02:21:06.056Z,4.04
2017-06-02T02:23:35.016Z,3.26
2017-06-02T02:26:03.940Z,2.82
2017-06-02T02:28:32.907Z,3.50
2017-06-02T02:31:01.830Z,3.74
2017-06-02T02:33:30.744Z,3.22
2017-06-02T02:35:59.712Z,3.36
2017-06-02T02:38:28.682Z,3.14
2017-06-02T02:40:57.600Z,3.38
2017-06-02T02:43:26.554Z,4.12
2017-06-02T02:45:55.516Z,3.80
2017-06-02T02:48:24.437Z,3.46
2017-06-02T02:50:53.356Z,4.18
2017-06-02T02:53:22.325Z,3.34
2017-06-02T02:55:51.289Z,3.96
2017-06-02T02:58:20.252Z,4.66
2017-06-02T03:00:49.215Z,2.70
2017-06-02T03:03:18.157Z,5.04
2017-06-02T03:05:47.148Z,3.78
2017-06-02T03:08:16.112Z,3.90
2017-06-02T03:10:45.034Z,4.40
2017-06-02T03:13:14.020Z,4.00
2017-06-02T03:15:42.975Z,3.56
2017-06-02T03:18:11.949Z,3.38
2017-06-02T03:20:40.868Z,3.70
2017-06-02T03:23:09.788Z,3.76
2017-06-02T03:25:38.748Z,4.74
2017-06-02T03:28:08.276Z,3.66
2017-06-02T03:30:37.261Z,4.08
2017-06-02T03:33:06.179Z,4.10
2017-06-02T03:35:35.097Z,3.40
2017-06-02T03:38:04.068Z,3.68
2017-06-02T03:40:32.994Z,5.04
2017-06-02T03:43:01.920Z,4.60
2017-06-02T03:45:30.928Z,3.96
2017-06-02T03:47:59.892Z,4.26
2017-06-02T03:50:29.732Z,4.28
2017-06-02T03:52:58.660Z,3.38
2017-06-02T03:55:27.628Z,3.80
2017-06-02T03:57:56.565Z,3.82
2017-06-02T04:00:25.525Z,3.94
2017-06-02T04:02:54.532Z,3.00
2017-06-02T04:05:23.533Z,3.26
2017-06-02T04:07:52.460Z,3.02
2017-06-02T04:10:21.435Z,3.00
2017-06-02T04:12:50.356Z,2.90
2017-06-02T04:15:19.285Z,2.60
2017-06-02T04:17:48.258Z,2.98
2017-06-02T04:22:52.504Z,3.88
2017-06-02T04:25:21.477Z,2.94
2017-06-02T04:27:50.400Z,3.16
2017-06-02T04:30:19.320Z,3.38
2017-06-02T04:32:48.433Z,4.00
2017-06-02T04:35:17.360Z,3.08
2017-06-02T04:37:46.309Z,3.20
2017-06-02T04:40:15.286Z,3.38
2017-06-02T04:42:44.217Z,4.00
2017-06-02T04:45:13.184Z,3.94
2017-06-02T04:47:42.116Z,2.84
2017-06-02T04:50:11.267Z,4.42
2017-06-02T04:52:40.244Z,4.50
2017-06-02T04:55:09.168Z,3.18
2017-06-02T04:57:38.092Z,3.18
2017-06-02T05:00:07.112Z,3.30
2017-06-02T05:02:36.036Z,3.62
2017-06-02T05:05:05.091Z,3.24
2017-06-02T05:07:34.092Z,3.04
2017-06-02T05:10:03.055Z,2.92
2017-06-02T05:12:32.016Z,2.72
2017-06-02T05:15:00.988Z,2.86
2017-06-02T05:17:29.928Z,3.08
2017-06-02T05:19:58.938Z,2.94
2017-06-02T05:22:27.896Z,3.24
2017-06-02T05:24:56.872Z,3.26
2017-06-02T05:27:25.832Z,2.70
2017-06-02T05:29:54.825Z,2.88
2017-06-02T05:32:23.797Z,4.06
2017-06-02T05:34:52.808Z,5.06
2017-06-02T05:37:21.805Z,2.42
2017-06-02T05:39:50.789Z,4.02
2017-06-02T05:42:19.789Z,2.30
2017-06-02T05:44:48.805Z,2.76
2017-06-02T05:47:17.829Z,1.96
2017-06-02T05:49:46.752Z,2.44
2017-06-02T05:52:15.785Z,2.80
2017-06-02T05:54:44.856Z,3.72
2017-06-02T05:57:13.807Z,5.16
2017-06-02T05:59:42.732Z,1.68
2017-06-02T06:02:11.699Z,1.96
2017-06-02T06:04:40.620Z,2.06
2017-06-02T06:07:09.592Z,2.38
2017-06-02T06:09:38.520Z,2.38
2017-06-02T06:12:07.444Z,2.30
2017-06-02T06:14:36.405Z,2.14
2017-06-02T06:17:05.397Z,2.22
2017-06-02T06:19:34.324Z,2.80
2017-06-02T06:22:03.272Z,1.66
2017-06-02T06:24:32.242Z,1.56
2017-06-02T06:27:01.251Z,1.74
2017-06-02T06:29:30.176Z,2.54
2017-06-02T06:31:59.161Z,1.86
2017-06-02T06:34:28.084Z,2.00
2017-06-02T06:36:57.008Z,3.12
2017-06-02T06:39:25.976Z,1.46
2017-06-02T06:41:54.897Z,1.40
2017-06-02T06:44:23.868Z,2.50
2017-06-02T06:46:52.881Z,1.50
2017-06-02T06:49:21.883Z,1.42
2017-06-02T06:51:50.875Z,1.60
2017-06-02T06:54:19.805Z,1.52
2017-06-02T06:56:48.863Z,1.30
2017-06-02T06:59:17.857Z,2.10
2017-06-02T07:01:46.824Z,1.20
2017-06-02T07:04:15.747Z,1.50
2017-06-02T07:06:45.041Z,1.60
2017-06-02T07:09:14.529Z,1.56
2017-06-02T07:11:43.512Z,1.82
2017-06-02T07:14:12.537Z,1.00
2017-06-02T07:16:41.520Z,1.40
2017-06-02T07:19:10.616Z,1.20
2017-06-02T07:21:39.545Z,1.30
2017-06-02T07:24:08.499Z,1.72
2017-06-02T07:26:38.104Z,1.96
2017-06-02T07:29:07.024Z,1.04
2017-06-02T07:31:36.179Z,1.08
2017-06-02T07:34:05.176Z,1.32
2017-06-02T07:36:34.180Z,1.22
2017-06-02T07:39:03.173Z,0.90
2017-06-02T07:41:32.102Z,0.90
2017-06-02T07:44:01.024Z,1.20
2017-06-02T07:46:29.990Z,1.26
2017-06-02T07:48:59.099Z,1.34
2017-06-02T07:51:28.004Z,1.10
2017-06-02T07:53:56.969Z,1.78
2017-06-02T07:56:25.933Z,0.94
2017-06-02T07:58:54.864Z,0.90
2017-06-02T08:01:23.793Z,1.06
2017-06-02T08:03:52.796Z,0.80
2017-06-02T08:06:21.788Z,1.08
2017-06-02T08:08:50.784Z,0.90
2017-06-02T08:11:19.777Z,0.88
2017-06-02T08:13:48.701Z,1.00
2017-06-02T08:16:17.624Z,1.00
2017-06-02T08:18:46.593Z,0.90
2017-06-02T08:21:15.516Z,0.70
2017-06-02T08:23:44.445Z,1.30
2017-06-02T08:26:14.188Z,1.72
2017-06-02T08:28:43.113Z,1.06
2017-06-02T08:31:12.092Z,0.74
2017-06-02T08:33:41.052Z,0.98
2017-06-02T08:36:10.017Z,1.16
2017-06-02T08:38:39.004Z,1.50
2017-06-02T08:41:07.929Z,1.46
2017-06-02T08:43:36.888Z,2.24
2017-06-02T08:46:05.856Z,1.34
2017-06-02T08:48:34.885Z,0.80
2017-06-02T08:51:03.852Z,0.88
2017-06-02T08:53:32.812Z,0.90
2017-06-02T08:56:01.753Z,0.80
2017-06-02T08:58:30.744Z,0.80
2017-06-02T09:00:59.741Z,0.70
2017-06-02T09:03:28.836Z,0.76
2017-06-02T09:05:57.821Z,0.62
2017-06-02T09:11:02.037Z,1.16
2017-06-02T09:13:31.004Z,0.64
2017-06-02T09:15:59.925Z,0.70
2017-06-02T09:18:28.900Z,0.80
2017-06-02T09:20:57.820Z,0.90
2017-06-02T09:23:26.788Z,2.22
2017-06-02T09:25:55.760Z,0.98
2017-06-02T09:28:24.681Z,0.88
2017-06-02T09:30:53.697Z,1.22
2017-06-02T09:33:22.660Z,1.00
2017-06-02T09:35:51.631Z,1.20
2017-06-02T09:38:20.576Z,0.98
2017-06-02T09:40:49.569Z,1.46
2017-06-02T09:43:18.556Z,1.30
2017-06-02T09:45:47.552Z,1.12
2017-06-02T09:48:16.476Z,1.66
2017-06-02T09:50:45.458Z,1.06
2017-06-02T09:53:14.427Z,1.16
2017-06-02T09:55:43.353Z,1.30
2017-06-02T09:58:12.427Z,1.00
2017-06-02T10:00:41.357Z,1.00
2017-06-02T10:03:10.324Z,1.10
2017-06-02T10:05:39.350Z,1.22
2017-06-02T10:08:09.164Z,1.62
2017-06-02T10:10:38.084Z,1.22
2017-06-02T10:13:07.004Z,1.08
2017-06-02T10:15:36.056Z,1.16
2017-06-02T10:18:04.980Z,1.04
2017-06-02T10:20:33.972Z,0.98
2017-06-02T10:23:02.129Z,0.90
2017-06-02T10:25:31.058Z,1.30
2017-06-02T10:27:59.552Z,0.76
2017-06-02T10:30:28.472Z,1.00
2017-06-02T10:32:57.396Z,1.02
2017-06-02T10:35:26.361Z,1.30
2017-06-02T10:37:55.284Z,1.12
2017-06-02T10:40:24.344Z,1.10
2017-06-02T10:42:53.268Z,1.42
2017-06-02T10:45:22.196Z,1.02
2017-06-02T10:47:51.221Z,1.82
2017-06-02T10:50:20.212Z,1.70
2017-06-02T10:52:49.189Z,2.22
2017-06-02T10:55:18.112Z,1.84
2017-06-02T10:57:47.085Z,0.92
2017-06-02T11:00:16.048Z,0.96
2017-06-02T11:02:45.013Z,0.90
2017-06-02T11:05:13.973Z,1.32
2017-06-02T11:07:43.043Z,0.70
2017-06-02T11:10:11.968Z,0.82
2017-06-02T11:12:40.940Z,1.00
2017-06-02T11:15:09.937Z,0.98
2017-06-02T11:17:38.904Z,1.48
2017-06-02T11:20:07.880Z,1.08
2017-06-02T11:22:36.912Z,1.40
2017-06-02T11:25:05.909Z,0.88
2017-06-02T11:27:34.881Z,1.60
2017-06-02T11:30:03.848Z,0.70
2017-06-02T11:32:32.777Z,0.88
2017-06-02T11:35:01.710Z,0.80
2017-06-02T11:37:30.764Z,0.80
2017-06-02T11:39:59.756Z,0.76
2017-06-02T11:42:28.725Z,1.00
2017-06-02T11:44:57.696Z,0.80
2017-06-02T11:47:26.613Z,0.78
2017-06-02T11:49:55.537Z,0.90
2017-06-02T11:52:24.508Z,0.70
2017-06-02T11:54:53.597Z,0.70
2017-06-02T11:57:22.560Z,1.16
2017-06-02T11:59:51.484Z,0.60
2017-06-02T12:02:20.493Z,1.06
2017-06-02T12:04:49.489Z,1.26
2017-06-02T12:07:18.480Z,0.76
2017-06-02T12:09:47.452Z,0.60
2017-06-02T12:12:16.464Z,1.10
2017-06-02T12:14:45.397Z,1.26
2017-06-02T12:17:14.372Z,0.88
2017-06-02T12:19:43.305Z,0.74
2017-06-02T12:22:12.229Z,0.90
2017-06-02T12:24:41.225Z,0.80
2017-06-02T12:27:10.161Z,0.80
2017-06-02T12:29:39.081Z,0.68
2017-06-02T12:32:08.086Z,0.70
2017-06-02T12:34:37.092Z,0.74
2017-06-02T12:37:06.087Z,1.00
2017-06-02T12:39:35.064Z,0.60
2017-06-02T12:42:04.081Z,0.80
2017-06-02T12:44:33.041Z,0.60
2017-06-02T12:47:02.033Z,0.60
2017-06-02T12:49:31.037Z,0.80
2017-06-02T12:52:00.275Z,0.68
2017-06-02T12:54:29.196Z,0.96
2017-06-02T12:56:58.469Z,0.94
2017-06-02T12:59:27.401Z,0.60
2017-06-02T13:01:56.323Z,0.86
2017-06-02T13:04:25.886Z,0.82
2017-06-02T13:06:54.812Z,0.60
2017-06-02T13:09:23.775Z,0.78
2017-06-02T13:11:52.699Z,1.20
2017-06-02T13:14:21.660Z,0.60
2017-06-02T13:16:50.744Z,0.74
2017-06-02T13:19:19.855Z,0.60
2017-06-02T13:21:48.876Z,0.60
2017-06-02T13:24:17.888Z,0.68
2017-06-02T13:26:46.882Z,0.52
2017-06-02T13:29:15.835Z,0.62
2017-06-02T13:31:45.117Z,0.86
2017-06-02T13:34:14.090Z,0.96
2017-06-02T13:36:43.011Z,0.70
2017-06-02T13:39:11.936Z,0.70
2017-06-02T13:41:40.893Z,0.60
2017-06-02T13:44:09.816Z,0.52
2017-06-02T13:46:38.788Z,0.60
2017-06-02T13:49:07.778Z,0.60
2017-06-02T13:51:36.784Z,0.40
2017-06-02T13:54:05.807Z,0.58
2017-06-02T13:56:34.733Z,0.40
2017-06-02T13:59:03.664Z,0.56
2017-06-02T14:01:32.648Z,0.60
2017-06-02T14:04:01.568Z,0.60
2017-06-02T14:06:30.491Z,0.50
2017-06-02T14:08:59.631Z,0.52
2017-06-02T14:11:28.723Z,0.40
2017-06-02T14:13:57.727Z,0.50
2017-06-02T14:16:26.908Z,0.50
2017-06-02T14:18:55.968Z,2.90
2017-06-02T14:21:24.992Z,0.60
2017-06-02T14:23:53.952Z,0.40
2017-06-02T14:26:22.953Z,0.64
2017-06-02T14:28:51.875Z,0.50
2017-06-02T14:31:20.800Z,0.70
2017-06-02T14:33:49.776Z,0.40
2017-06-02T14:36:18.701Z,0.50
2017-06-02T14:38:47.621Z,0.40
2017-06-02T14:41:16.627Z,0.50
2017-06-02T14:43:45.704Z,0.60
2017-06-02T14:46:14.636Z,0.50
2017-06-02T14:48:43.855Z,0.60
2017-06-02T14:51:12.840Z,0.40
2017-06-02T14:53:41.808Z,2.10
2017-06-02T14:56:10.736Z,0.44
2017-06-02T14:58:39.707Z,0.40
2017-06-02T15:01:08.704Z,0.60
2017-06-02T15:03:37.743Z,0.58
2017-06-02T15:06:07.018Z,0.50
2017-06-02T15:08:35.971Z,0.50
2017-06-02T15:11:04.941Z,0.50
2017-06-02T15:13:34.117Z,9.88
2017-06-02T15:16:03.104Z,0.50
2017-06-02T15:18:32.036Z,0.66
2017-06-02T15:21:01.004Z,0.50
2017-06-02T15:23:30.161Z,0.70
2017-06-02T15:25:59.403Z,0.50
2017-06-02T15:28:28.661Z,0.46
2017-06-02T15:30:57.863Z,0.94
2017-06-02T15:33:27.172Z,0.70
2017-06-02T15:35:56.625Z,0.58
2017-06-02T15:38:25.613Z,0.50
2017-06-02T15:40:54.535Z,0.50
2017-06-02T15:43:23.693Z,0.60
2017-06-02T15:45:52.621Z,0.50
2017-06-02T15:48:21.612Z,0.50
2017-06-02T15:50:50.587Z,0.50
2017-06-02T15:53:19.548Z,0.54
2017-06-02T15:55:48.482Z,0.64
2017-06-02T15:58:17.536Z,0.58
2017-06-02T16:00:46.529Z,0.64
2017-06-02T16:03:15.455Z,0.66
2017-06-02T16:05:44.602Z,0.50
2017-06-02T16:08:13.533Z,0.56
2017-06-02T16:10:44.420Z,0.64
2017-06-02T16:13:15.557Z,0.48
2017-06-02T16:15:44.580Z,0.60
2017-06-02T16:18:13.572Z,0.60
2017-06-02T16:20:42.497Z,0.50
2017-06-02T16:23:11.420Z,0.48
2017-06-02T16:25:40.541Z,0.50
2017-06-02T16:28:09.593Z,0.40
2017-06-02T16:30:38.540Z,0.50
2017-06-02T16:33:07.468Z,0.54
2017-06-02T16:35:36.519Z,0.42
2017-06-02T16:38:05.520Z,0.52
2017-06-02T16:40:34.501Z,0.40
2017-06-02T16:43:03.426Z,0.40
2017-06-02T16:45:32.352Z,0.50
2017-06-02T16:48:01.492Z,0.48
2017-06-02T16:50:30.484Z,0.42
2017-06-02T16:52:59.480Z,0.40
2017-06-02T16:55:28.473Z,0.50
2017-06-02T16:57:57.395Z,0.50
2017-06-02T17:00:26.348Z,0.50
2017-06-02T17:02:55.315Z,0.70
2017-06-02T17:05:24.240Z,0.40
2017-06-02T17:07:53.199Z,0.40
2017-06-02T17:10:22.160Z,0.56
2017-06-02T17:12:51.084Z,0.50
2017-06-02T17:15:20.061Z,0.72
2017-06-02T17:17:48.984Z,0.50
2017-06-02T17:20:17.908Z,1.08
2017-06-02T17:22:48.664Z,0.50
2017-06-02T17:25:17.625Z,0.40
2017-06-02T17:27:46.552Z,0.66
2017-06-02T17:30:15.615Z,0.50
2017-06-02T17:32:44.540Z,0.50
2017-06-02T17:35:13.465Z,0.72
2017-06-02T17:37:42.485Z,0.60
2017-06-02T17:40:11.646Z,0.50
2017-06-02T17:42:40.568Z,0.80
2017-06-02T17:45:09.492Z,0.56
2017-06-02T17:47:38.552Z,0.64
2017-06-02T17:50:07.544Z,0.82
2017-06-02T17:52:36.474Z,0.50
2017-06-02T17:55:05.448Z,0.40
2017-06-02T17:57:34.377Z,0.66
2017-06-02T18:00:03.297Z,0.60
2017-06-02T18:02:32.293Z,0.60
2017-06-02T18:05:01.218Z,0.50
2017-06-02T18:07:30.325Z,0.50
2017-06-02T18:09:59.252Z,0.80
2017-06-02T18:12:28.172Z,0.58
2017-06-02T18:14:57.271Z,0.46
2017-06-02T18:17:26.191Z,0.60
2017-06-02T18:19:55.172Z,0.56
2017-06-02T18:22:24.148Z,0.74
2017-06-02T18:24:53.077Z,0.50
2017-06-02T18:27:22.076Z,0.62
2017-06-02T18:29:51.000Z,0.88
2017-06-02T18:32:20.022Z,0.66
2017-06-02T18:34:49.111Z,0.56
2017-06-02T18:37:18.060Z,0.72
2017-06-02T18:39:47.099Z,0.62
2017-06-02T18:42:16.063Z,0.74
2017-06-02T18:44:44.993Z,0.98
2017-06-02T18:47:13.916Z,1.92
2017-06-02T18:49:42.883Z,2.60
2017-06-02T18:52:11.811Z,2.14
2017-06-02T18:54:40.742Z,1.40
2017-06-02T18:57:09.860Z,1.04
2017-06-02T18:59:38.784Z,1.62
2017-06-02T19:02:07.732Z,1.88
2017-06-02T19:04:36.725Z,1.40
2017-06-02T19:07:05.662Z,0.88
2017-06-02T19:09:34.584Z,0.86
2017-06-02T19:12:03.560Z,1.00
2017-06-02T19:14:32.492Z,1.36
2017-06-02T19:17:01.484Z,1.40
2017-06-02T19:19:30.448Z,1.80
2017-06-02T19:21:59.375Z,1.64
2017-06-02T19:24:28.416Z,1.20
2017-06-02T19:26:57.384Z,8.20
2017-06-02T19:29:26.312Z,2.90
2017-06-02T19:31:55.236Z,2.30
2017-06-02T19:34:24.200Z,1.40
2017-06-02T19:36:53.125Z,1.98
2017-06-02T19:39:22.285Z,0.86
2017-06-02T19:41:51.269Z,1.02
2017-06-02T19:44:20.200Z,1.52
2017-06-02T19:46:49.252Z,0.70
2017-06-02T19:49:18.250Z,1.22
2017-06-02T19:51:47.172Z,1.44
2017-06-02T19:54:16.232Z,1.90
2017-06-02T19:56:45.169Z,1.52
2017-06-02T19:59:14.697Z,1.54
2017-06-02T20:01:43.724Z,0.68
2017-06-02T20:04:12.656Z,1.08
2017-06-02T20:06:41.709Z,1.78
2017-06-02T20:09:10.704Z,0.70
2017-06-02T20:11:39.628Z,0.90
2017-06-02T20:14:08.608Z,0.90
2017-06-02T20:16:37.546Z,1.14
2017-06-02T20:19:06.571Z,0.68
2017-06-02T20:21:35.573Z,0.70
2017-06-02T20:24:04.496Z,0.60
2017-06-02T20:26:33.419Z,0.70
2017-06-02T20:29:02.380Z,1.06
2017-06-02T20:31:31.304Z,1.48
2017-06-02T20:34:00.424Z,1.28
2017-06-02T20:36:29.506Z,0.94
2017-06-02T20:38:58.499Z,0.88
2017-06-02T20:41:27.496Z,1.24
2017-06-02T20:43:56.477Z,1.10
2017-06-02T20:46:25.400Z,2.02
2017-06-02T20:48:54.570Z,0.96
2017-06-02T20:51:23.495Z,1.00
2017-06-02T20:53:52.425Z,0.80
2017-06-02T20:56:21.394Z,1.50
2017-06-02T20:58:50.323Z,1.00
2017-06-02T21:01:19.312Z,0.60
2017-06-02T21:03:48.509Z,0.82
2017-06-02T21:06:17.472Z,1.00
2017-06-02T21:08:46.452Z,0.80
2017-06-02T21:11:15.372Z,0.70
2017-06-02T21:13:44.315Z,0.86
2017-06-02T21:16:13.296Z,0.98
2017-06-02T21:18:42.229Z,0.80
2017-06-02T21:21:11.165Z,1.02
2017-06-02T21:23:40.140Z,1.46
2017-06-02T21:26:09.060Z,1.36
2017-06-02T21:28:38.073Z,1.00
2017-06-02T21:31:07.045Z,0.92
2017-06-02T21:33:35.959Z,2.20
2017-06-02T21:36:04.954Z,1.00
2017-06-02T21:38:33.917Z,1.14
2017-06-02T21:41:02.840Z,0.92
2017-06-02T21:43:31.800Z,1.16
2017-06-02T21:46:00.727Z,1.08
2017-06-02T21:48:29.809Z,0.96
2017-06-02T21:50:58.804Z,1.00
2017-06-02T21:53:27.796Z,1.32
2017-06-02T21:55:56.756Z,1.14
2017-06-02T21:58:25.738Z,0.80
2017-06-02T22:00:54.665Z,1.54
2017-06-02T22:03:23.583Z,0.90
2017-06-02T22:05:52.555Z,1.18
2017-06-02T22:08:21.488Z,0.78
2017-06-02T22:10:50.463Z,0.96
2017-06-02T22:13:19.388Z,0.96
2017-06-02T22:15:48.321Z,0.82
2017-06-02T22:18:17.326Z,1.00
2017-06-02T22:20:46.311Z,1.38
2017-06-02T22:23:15.231Z,0.96
2017-06-02T22:25:44.212Z,0.76
2017-06-02T22:28:13.136Z,0.84
2017-06-02T22:30:42.072Z,1.00
2017-06-02T22:33:11.040Z,0.92
2017-06-02T22:35:40.059Z,0.92
2017-06-02T22:38:08.980Z,1.28
2017-06-02T22:40:38.056Z,0.74
2017-06-02T22:43:07.038Z,1.02
2017-06-02T22:45:36.032Z,1.00
2017-06-02T22:48:04.952Z,1.06
2017-06-02T22:50:33.913Z,1.22
2017-06-02T22:53:02.917Z,0.94
2017-06-02T22:55:31.897Z,1.00
2017-06-02T22:58:00.820Z,1.22
2017-06-02T23:00:29.777Z,0.90
2017-06-02T23:02:58.781Z,0.90
2017-06-02T23:05:27.757Z,2.28
2017-06-02T23:07:56.688Z,0.98
2017-06-02T23:10:25.652Z,0.90
2017-06-02T23:12:54.621Z,1.00
2017-06-02T23:15:23.548Z,1.16
2017-06-02T23:17:52.472Z,1.50
2017-06-02T23:20:21.433Z,1.12
2017-06-02T23:22:50.419Z,1.08
2017-06-02T23:25:19.413Z,0.80
2017-06-02T23:27:48.339Z,1.10
2017-06-02T23:30:17.310Z,1.20
2017-06-02T23:32:46.233Z,1.14
2017-06-02T23:35:15.203Z,1.02
2017-06-02T23:37:44.123Z,0.96
2017-06-02T23:40:13.060Z,1.00
2017-06-02T23:42:42.029Z,1.08
2017-06-02T23:45:11.044Z,1.04
2017-06-02T23:47:39.985Z,1.20
2017-06-02T23:50:08.909Z,1.00
2017-06-02T23:52:37.880Z,1.40
2017-06-02T23:55:06.888Z,1.04
2017-06-02T23:57:35.835Z,1.06
